Hulst, Netherlands
Current Conditions -  °F | °C
As of 8:55 AM on Thursday 29 Jan 2015 (Local Time) from EHWO Reporting Station
Scattered Clouds Scattered Clouds  
Wind Chill: 28°   Ceiling: Unl
Heat Index: 36°   Visibility: 6mi
Dew Point: 32°   Wind: 12mph
Humidity: 87%   Direction: 220°SW
Pressure: 29.23"   Gusts: NA
Location:  51.28°N, 4.05°E
Report Text: EHWO 290755Z AUTO 22010KT 9999 FEW032 SCT056 02/M00 Q0990 BLU 22012KT 9999 FEW030 SCT045 TEMPO 22012G22KT 4500 -SHRAGSSN FEW010 SCT020CB BKN030
Loading
Personal Weather Stations






























Interactive Weather Map New forecast layout! Learn more

10-Day Weather Forecast

Advertisements
Track Severe Weather on mobile